Tyler — WDH2928 — position and weather

sailwx.info

Track history (hours):
 
Tides and Currents Weather Stations Pressure Air Temp Water Temp Dewpoint Dewpoint Depression Visibility Wind Speed Wind Dir Waves Ship Positions

Tyler

Owner: F/V Tyler Inc, Gloucester, MA. More information available from US FCC via Universal Licensing System and Coast Guard Vessel Documentation Center.

Last reported at 2018-Jun-20 11:11 UTC. Time now 2018-Jun-21 14:07 UTC.
Position N 42°06' W 069°48'.

Length 20 m; draft 14 m.

Type: Ship. MMSI: 367602610.

Date/timePositionNaut miles runAvg speedWind from/ knotsBaromVisibWave heightAir tempDewpointWater temp
2018-Jun-20 11:11N 42°06' W 069°48'0 1.9
2018-Jun-20 10:57N 42°06' W 069°48'1 1.6
2018-Jun-20 10:22N 42°06' W 069°47'1 2.2
2018-Jun-20 09:59N 42°07' W 069°46'12 0.3
2018-Jun-18 11:45N 42°17' W 069°54'1 3.3
2018-Jun-18 11:30N 42°17' W 069°54'2 3.3
2018-Jun-18 11:00N 42°15' W 069°52'2 3.3
2018-Jun-18 10:30N 42°14' W 069°52'1 1.3
2018-Jun-18 10:00N 42°13' W 069°51'0 0.7
2018-Jun-18 09:30N 42°14' W 069°51'1 3.0
2018-Jun-18 09:00N 42°15' W 069°52'2 3.0
2018-Jun-18 08:30N 42°17' W 069°53'3 3.2
2018-Jun-18 07:30N 42°20' W 069°54'2 2.0
2018-Jun-18 06:19N 42°20' W 069°58'1 2.7
2018-Jun-18 06:00N 42°20' W 069°59'1 2.4
2018-Jun-18 05:30N 42°19' W 069°59'1 2.9
2018-Jun-18 05:00N 42°18' W 069°57'1 2.8
2018-Jun-18 04:30N 42°19' W 069°56'1 2.8
2018-Jun-18 03:58N 42°21' W 069°55'1 2.8
2018-Jun-18 03:30N 42°22' W 069°55'1 2.7
2018-Jun-18 02:58N 42°23' W 069°55'1 2.1
2018-Jun-18 02:30N 42°23' W 069°56'2 2.6
2018-Jun-18 01:38N 42°21' W 069°58'0 2.8
2018-Jun-18 01:29N 42°21' W 069°58'2 3.6
2018-Jun-18 01:00N 42°19' W 069°58'0 0.7
2018-Jun-18 00:29N 42°19' W 069°58'0 0.1
2018-Jun-17 22:50N 42°19' W 069°58'0 0.4
2018-Jun-17 22:29N 42°19' W 069°58'0 0.4
2018-Jun-17 22:00N 42°19' W 069°58'1 1.8
2018-Jun-17 21:30N 42°18' W 069°58'0 0.5
2018-Jun-17 21:00N 42°18' W 069°57'1 1.0
2018-Jun-17 20:30N 42°18' W 069°57'1 2.1
2018-Jun-17 19:59N 42°19' W 069°56'1 2.6
2018-Jun-17 19:28N 42°20' W 069°55'1 2.8
2018-Jun-17 19:00N 42°21' W 069°55'1 2.7
2018-Jun-17 18:30N 42°22' W 069°56'1 2.7
2018-Jun-17 18:00N 42°22' W 069°58'1 2.8
2018-Jun-17 17:30N 42°21' W 069°59'1 2.8
2018-Jun-17 17:00N 42°19' W 069°59'1 2.4
2018-Jun-17 16:30N 42°18' W 069°58'1 2.7
2018-Jun-17 16:00N 42°19' W 069°56'6 1.7
2018-Jun-17 12:25N 42°25' W 069°58'3 8.0
2018-Jun-17 12:00N 42°25' W 070°03'4 7.7
2018-Jun-17 11:28N 42°27' W 070°08'4 8.1
2018-Jun-17 11:00N 42°28' W 070°13'4 8.2
2018-Jun-17 10:30N 42°29' W 070°18'4 8.3
2018-Jun-17 10:00N 42°30' W 070°24'4 8.3
2018-Jun-17 09:30N 42°31' W 070°29'4 8.3
2018-Jun-17 08:59N 42°32' W 070°35'4 8.1
2018-Jun-17 08:30N 42°34' W 070°40'3 5.6
2018-Jun-17 08:00N 42°37' W 070°40'0 0.7
2018-Jun-17 07:30N 42°37' W 070°39'0 0.0
2018-Jun-17 07:00N 42°37' W 070°39'0 0.0
2018-Jun-17 06:30N 42°37' W 070°39'0 0.0
2018-Jun-17 06:00N 42°37' W 070°39'0 0.0
2018-Jun-17 05:30N 42°37' W 070°39'0 0.0
2018-Jun-17 05:00N 42°37' W 070°39'0 0.2
2018-Jun-17 04:30N 42°37' W 070°39'0 0.0
2018-Jun-17 04:00N 42°37' W 070°39'0 0.0
2018-Jun-17 03:30N 42°37' W 070°39'0 0.0
2018-Jun-17 03:00N 42°37' W 070°39'0 0.0
2018-Jun-17 02:30N 42°37' W 070°39'0 0.0
2018-Jun-17 02:00N 42°37' W 070°39'0 0.0
2018-Jun-17 01:30N 42°37' W 070°39'0 0.0
2018-Jun-17 01:00N 42°37' W 070°39'0 0.0
2018-Jun-17 00:30N 42°37' W 070°39'0 0.0
2018-Jun-17 00:00N 42°37' W 070°39'0 0.0
2018-Jun-16 23:30N 42°37' W 070°39'0 0.0
2018-Jun-16 23:00N 42°37' W 070°39'0 0.0
2018-Jun-16 22:30N 42°37' W 070°39'0 0.0
2018-Jun-16 22:00N 42°37' W 070°39'0 0.0
2018-Jun-16 21:30N 42°37' W 070°39'0 0.0
2018-Jun-16 21:00N 42°37' W 070°39'0 0.0
2018-Jun-16 20:30N 42°37' W 070°39'0 0.0
2018-Jun-16 20:00N 42°37' W 070°39'0 0.0
2018-Jun-16 19:30N 42°37' W 070°39'0 0.0
2018-Jun-16 19:00N 42°37' W 070°39'0 0.0
2018-Jun-16 18:30N 42°37' W 070°39'0 0.9
2018-Jun-16 18:00N 42°37' W 070°40'0 0.0
2018-Jun-16 17:30N 42°37' W 070°40'0 0.0
2018-Jun-16 17:00N 42°37' W 070°40'0 0.9
2018-Jun-16 16:30N 42°37' W 070°39'0 0.0
2018-Jun-16 16:00N 42°37' W 070°39'0 0.0
2018-Jun-16 15:30N 42°37' W 070°39'0 0.0
2018-Jun-16 15:00N 42°37' W 070°39'0 0.0
2018-Jun-16 14:30N 42°37' W 070°39'0 0.0
2018-Jun-16 14:00N 42°37' W 070°39'0 0.0
2018-Jun-16 13:30N 42°37' W 070°39'0 0.0
2018-Jun-16 13:00N 42°37' W 070°39'0 0.0
2018-Jun-16 12:30N 42°37' W 070°39'0 0.0
2018-Jun-16 12:00N 42°37' W 070°39'0 0.0
2018-Jun-16 11:30N 42°37' W 070°39'0 0.0
2018-Jun-16 11:00N 42°37' W 070°39'0 0.0
2018-Jun-16 10:30N 42°37' W 070°39'0 0.0
2018-Jun-16 10:00N 42°37' W 070°39'0 0.0
2018-Jun-16 09:30N 42°37' W 070°39'0 0.0
2018-Jun-16 09:00N 42°37' W 070°39'0 0.0
2018-Jun-16 08:30N 42°37' W 070°39'0 0.0
2018-Jun-16 08:00N 42°37' W 070°39'0 0.0
2018-Jun-16 07:30N 42°37' W 070°39'0 0.0
2018-Jun-16 07:00N 42°37' W 070°39'0 0.0
2018-Jun-16 06:30N 42°37' W 070°39'0 0.0
2018-Jun-16 05:59N 42°37' W 070°39'0 0.0
2018-Jun-16 05:30N 42°37' W 070°39'0 0.0
2018-Jun-16 05:00N 42°37' W 070°39'0 0.0
2018-Jun-16 04:30N 42°37' W 070°39'0 0.0
2018-Jun-16 04:00N 42°37' W 070°39'0 0.0
2018-Jun-16 03:30N 42°37' W 070°39'0 0.0
2018-Jun-16 03:00N 42°37' W 070°39'0 0.0
2018-Jun-16 02:30N 42°37' W 070°39'0 0.0
2018-Jun-16 02:00N 42°37' W 070°39'0 0.0
2018-Jun-16 01:30N 42°37' W 070°39'0 0.0
2018-Jun-16 01:00N 42°37' W 070°39'0 0.0
2018-Jun-16 00:30N 42°37' W 070°39'0 0.0
2018-Jun-15 23:59N 42°37' W 070°39'0 0.0
2018-Jun-15 23:30N 42°37' W 070°39'0 0.0
2018-Jun-15 23:00N 42°37' W 070°39'0 0.0
2018-Jun-15 22:30N 42°37' W 070°39'0 0.0
2018-Jun-15 22:00N 42°37' W 070°39'0 0.0
2018-Jun-15 21:30N 42°37' W 070°39'0 0.0
2018-Jun-15 21:00N 42°37' W 070°39'0 0.0
2018-Jun-15 20:30N 42°37' W 070°39'0 0.0
2018-Jun-15 20:00N 42°37' W 070°39'0 0.0
2018-Jun-15 19:30N 42°37' W 070°39'0 0.0
2018-Jun-15 19:00N 42°37' W 070°39'0 0.0
2018-Jun-15 18:30N 42°37' W 070°39'0 0.0
2018-Jun-15 18:00N 42°37' W 070°39'0 0.0
2018-Jun-15 17:30N 42°37' W 070°39'0 0.0
2018-Jun-15 17:00N 42°37' W 070°39'0 0.0
2018-Jun-15 16:30N 42°37' W 070°39'0 0.0
2018-Jun-15 16:00N 42°37' W 070°39'0 0.0
2018-Jun-15 15:30N 42°37' W 070°39'0 0.0
2018-Jun-15 15:01N 42°37' W 070°39'0 0.0
2018-Jun-15 14:30N 42°37' W 070°39'0 0.0
2018-Jun-15 14:01N 42°37' W 070°39'0 0.0
2018-Jun-15 13:30N 42°37' W 070°39'0 0.0
2018-Jun-15 13:00N 42°37' W 070°39'0 0.0
2018-Jun-15 12:30N 42°37' W 070°39'0 0.0
2018-Jun-15 12:00N 42°37' W 070°39'0 0.0
2018-Jun-15 11:30N 42°37' W 070°39'0 0.0
2018-Jun-15 11:00N 42°37' W 070°39'0 0.0
2018-Jun-15 10:30N 42°37' W 070°39'0 0.0
2018-Jun-15 10:00N 42°37' W 070°39'0 0.0
2018-Jun-15 09:30N 42°37' W 070°39'0 0.0
2018-Jun-15 09:00N 42°37' W 070°39'0 0.0
2018-Jun-15 08:30N 42°37' W 070°39'0 0.0
2018-Jun-15 08:00N 42°37' W 070°39'0 0.0
2018-Jun-15 07:31N 42°37' W 070°39'0 0.0
2018-Jun-15 07:00N 42°37' W 070°39'0 0.0
2018-Jun-15 06:30N 42°37' W 070°39'0 0.0
2018-Jun-15 06:00N 42°37' W 070°39'0 0.0
2018-Jun-15 05:30N 42°37' W 070°39'0 0.0
2018-Jun-15 05:00N 42°37' W 070°39'0 0.0
2018-Jun-15 04:31N 42°37' W 070°39'0 0.0
2018-Jun-15 04:00N 42°37' W 070°39'0 0.0
2018-Jun-15 03:30N 42°37' W 070°39'0 0.0
2018-Jun-15 03:00N 42°37' W 070°39'0 0.0
2018-Jun-15 02:30N 42°37' W 070°39'0 0.0
2018-Jun-15 02:00N 42°37' W 070°39'0 0.0
2018-Jun-15 01:30N 42°37' W 070°39'0 0.0
2018-Jun-15 01:00N 42°37' W 070°39'0 0.0
2018-Jun-15 00:30N 42°37' W 070°39'0 0.0
2018-Jun-15 00:00N 42°37' W 070°39'0 0.0
2018-Jun-14 23:30N 42°37' W 070°39'0 0.0
2018-Jun-14 23:00N 42°37' W 070°39'0 0.0
2018-Jun-14 22:30N 42°37' W 070°39'0 0.0
2018-Jun-14 22:00N 42°37' W 070°39'0 0.0
2018-Jun-14 21:30N 42°37' W 070°39'0 0.0
2018-Jun-14 21:00N 42°37' W 070°39'0 0.0
2018-Jun-14 20:30N 42°37' W 070°39'0 0.0
2018-Jun-14 20:00N 42°37' W 070°39'0 0.0
2018-Jun-14 19:30N 42°37' W 070°39'0 0.0
2018-Jun-14 19:00N 42°37' W 070°39'0 0.0
2018-Jun-14 18:30N 42°37' W 070°39'0 0.0
2018-Jun-14 18:00N 42°37' W 070°39'0 0.0
2018-Jun-14 17:30N 42°37' W 070°39'0 0.0
2018-Jun-14 17:00N 42°37' W 070°39'0 0.0
2018-Jun-14 16:30N 42°37' W 070°39'0 0.0
2018-Jun-14 16:00N 42°37' W 070°39'0 0.0
2018-Jun-14 15:30N 42°37' W 070°39'0 0.0
2018-Jun-14 15:00N 42°37' W 070°39'0 0.0
2018-Jun-14 14:30N 42°37' W 070°39'0 0.0
2018-Jun-14 14:00N 42°37' W 070°39'0 0.9
2018-Jun-14 13:29N 42°37' W 070°40'0 0.0
2018-Jun-14 12:58N 42°37' W 070°40'0 0.0
2018-Jun-14 12:30N 42°37' W 070°40'0 0.0
2018-Jun-14 12:00N 42°37' W 070°40'0 0.0
2018-Jun-14 11:30N 42°37' W 070°40'0 0.0
2018-Jun-14 11:00N 42°37' W 070°40'0 0.0
2018-Jun-14 10:30N 42°37' W 070°40'0 0.0
2018-Jun-14 10:00N 42°37' W 070°40'0 0.0
2018-Jun-14 09:30N 42°37' W 070°40'0 0.0
2018-Jun-14 09:00N 42°37' W 070°40'2 4.7
2018-Jun-14 08:30N 42°34' W 070°40'4 8.2
2018-Jun-14 08:00N 42°33' W 070°35'4 8.7
2018-Jun-14 07:30N 42°30' W 070°30'4 8.8
2018-Jun-14 07:00N 42°29' W 070°25'4 8.7
2018-Jun-14 06:29N 42°27' W 070°19'3 7.0
2018-Jun-14 06:00N 42°26' W 070°15'13 0.4
2018-Jun-13 00:34N 42°22' W 069°58'0 3.5
2018-Jun-13 00:28N 42°22' W 069°58'3 0.2
2018-Jun-12 08:18N 42°19' W 069°59'2 2.3
2018-Jun-12 07:39N 42°21' W 069°58'1 2.8
2018-Jun-12 07:17N 42°22' W 069°58'1 2.9
2018-Jun-12 06:49N 42°23' W 069°57'1 3.1
2018-Jun-12 06:22N 42°24' W 069°56'1 2.9
2018-Jun-12 06:00N 42°25' W 069°56'3 1.1
2018-Jun-12 03:44N 42°27' W 069°53'3 2.8
2018-Jun-12 02:46N 42°25' W 069°56'1 2.7
2018-Jun-12 02:30N 42°24' W 069°56'2 2.8
2018-Jun-12 01:49N 42°22' W 069°56'1 2.8
2018-Jun-12 01:30N 42°21' W 069°56'2 2.8
2018-Jun-12 00:52N 42°20' W 069°56'1 2.9
2018-Jun-12 00:30N 42°19' W 069°57'1 2.7
2018-Jun-11 23:59N 42°18' W 069°58'1 2.9
2018-Jun-11 23:30N 42°20' W 069°59'1 2.9
2018-Jun-11 23:00N 42°21' W 069°58'1 2.8
2018-Jun-11 22:30N 42°22' W 069°57'1 2.9
2018-Jun-11 21:59N 42°23' W 069°56'2 0.9
2018-Jun-11 19:19N 42°25' W 069°58'0 0.2
2018-Jun-11 18:57N 42°25' W 069°58'3 2.6
2018-Jun-11 17:47N 42°23' W 069°57'1 2.9
2018-Jun-11 17:30N 42°22' W 069°57'5 2.0
2018-Jun-11 15:04N 42°26' W 069°59'16 2.1
2018-Jun-11 07:23N 42°36' W 069°42'1 3.1
2018-Jun-11 07:00N 42°36' W 069°40'5 2.9
2018-Jun-11 05:13N 42°37' W 069°33'1 2.6
2018-Jun-11 04:59N 42°37' W 069°33'8 2.3
2018-Jun-11 01:41N 42°43' W 069°28'1 3.5
2018-Jun-11 01:30N 42°44' W 069°28'2 3.3
2018-Jun-11 00:47N 42°45' W 069°31'1 3.3
2018-Jun-11 00:30N 42°46' W 069°32'2 3.2
2018-Jun-11 00:00N 42°46' W 069°34'1 3.0
2018-Jun-10 23:30N 42°47' W 069°36'1 2.9
2018-Jun-10 23:00N 42°47' W 069°38'2 3.4
2018-Jun-10 22:30N 42°46' W 069°40'5 9.0
2018-Jun-10 22:00N 42°42' W 069°42'5 9.5
2018-Jun-10 21:30N 42°38' W 069°45'5 9.3
2018-Jun-10 21:00N 42°34' W 069°48'4 9.1
2018-Jun-10 20:30N 42°30' W 069°51'3 5.9
2018-Jun-10 20:00N 42°27' W 069°52'3 5.4
2018-Jun-10 19:30N 42°25' W 069°55'4 8.4
2018-Jun-10 19:00N 42°21' W 069°58'3 5.0
2018-Jun-10 18:30N 42°19' W 069°59'1 1.9
2018-Jun-10 18:00N 42°20' W 069°59'1 2.9
2018-Jun-10 17:30N 42°21' W 069°58'2 2.8
2018-Jun-10 16:40N 42°23' W 069°56'0 2.7
2018-Jun-10 16:30N 42°24' W 069°56'1 2.8
2018-Jun-10 16:00N 42°25' W 069°56'2 3.1
2018-Jun-10 15:17N 42°27' W 069°53'1 3.2
2018-Jun-10 14:59N 42°26' W 069°52'3 5.9
2018-Jun-10 14:30N 42°29' W 069°53'2 1.9
2018-Jun-10 13:12N 42°27' W 069°52'0 1.8
2018-Jun-10 12:58N 42°27' W 069°52'1 2.7
2018-Jun-10 12:30N 42°26' W 069°54'1 2.7
2018-Jun-10 12:00N 42°25' W 069°55'  
Track history (hours):
 
Tides and Currents Weather Stations Pressure Air Temp Water Temp Dewpoint Dewpoint Depression Visibility Wind Speed Wind Dir Waves Ship Positions

Tyler

Owner: F/V Tyler Inc, Gloucester, MA. More information available from US FCC via Universal Licensing System and Coast Guard Vessel Documentation Center.

Last reported at 2018-Jun-20 11:11 UTC. Time now 2018-Jun-21 14:07 UTC.
Position N 42°06' W 069°48'.

Length 20 m; draft 14 m.

Type: Ship. MMSI: 367602610.

Date/timePositionNaut miles runAvg speedWind from/ knotsBaromVisibWave heightAir tempDewpointWater temp
2018-Jun-20 11:11N 42°06' W 069°48'0 1.9
2018-Jun-20 10:57N 42°06' W 069°48'1 1.6
2018-Jun-20 10:22N 42°06' W 069°47'1 2.2
2018-Jun-20 09:59N 42°07' W 069°46'12 0.3
2018-Jun-18 11:45N 42°17' W 069°54'1 3.3
2018-Jun-18 11:30N 42°17' W 069°54'2 3.3
2018-Jun-18 11:00N 42°15' W 069°52'2 3.3
2018-Jun-18 10:30N 42°14' W 069°52'1 1.3
2018-Jun-18 10:00N 42°13' W 069°51'0 0.7
2018-Jun-18 09:30N 42°14' W 069°51'1 3.0
2018-Jun-18 09:00N 42°15' W 069°52'2 3.0
2018-Jun-18 08:30N 42°17' W 069°53'3 3.2
2018-Jun-18 07:30N 42°20' W 069°54'2 2.0
2018-Jun-18 06:19N 42°20' W 069°58'1 2.7
2018-Jun-18 06:00N 42°20' W 069°59'1 2.4
2018-Jun-18 05:30N 42°19' W 069°59'1 2.9
2018-Jun-18 05:00N 42°18' W 069°57'1 2.8
2018-Jun-18 04:30N 42°19' W 069°56'1 2.8
2018-Jun-18 03:58N 42°21' W 069°55'1 2.8
2018-Jun-18 03:30N 42°22' W 069°55'1 2.7
2018-Jun-18 02:58N 42°23' W 069°55'1 2.1
2018-Jun-18 02:30N 42°23' W 069°56'2 2.6
2018-Jun-18 01:38N 42°21' W 069°58'0 2.8
2018-Jun-18 01:29N 42°21' W 069°58'2 3.6
2018-Jun-18 01:00N 42°19' W 069°58'0 0.7
2018-Jun-18 00:29N 42°19' W 069°58'0 0.1
2018-Jun-17 22:50N 42°19' W 069°58'0 0.4
2018-Jun-17 22:29N 42°19' W 069°58'0 0.4
2018-Jun-17 22:00N 42°19' W 069°58'1 1.8
2018-Jun-17 21:30N 42°18' W 069°58'0 0.5
2018-Jun-17 21:00N 42°18' W 069°57'1 1.0
2018-Jun-17 20:30N 42°18' W 069°57'1 2.1
2018-Jun-17 19:59N 42°19' W 069°56'1 2.6
2018-Jun-17 19:28N 42°20' W 069°55'1 2.8
2018-Jun-17 19:00N 42°21' W 069°55'1 2.7
2018-Jun-17 18:30N 42°22' W 069°56'1 2.7
2018-Jun-17 18:00N 42°22' W 069°58'1 2.8
2018-Jun-17 17:30N 42°21' W 069°59'1 2.8
2018-Jun-17 17:00N 42°19' W 069°59'1 2.4
2018-Jun-17 16:30N 42°18' W 069°58'1 2.7
2018-Jun-17 16:00N 42°19' W 069°56'6 1.7
2018-Jun-17 12:25N 42°25' W 069°58'3 8.0
2018-Jun-17 12:00N 42°25' W 070°03'4 7.7
2018-Jun-17 11:28N 42°27' W 070°08'4 8.1
2018-Jun-17 11:00N 42°28' W 070°13'4 8.2
2018-Jun-17 10:30N 42°29' W 070°18'4 8.3
2018-Jun-17 10:00N 42°30' W 070°24'4 8.3
2018-Jun-17 09:30N 42°31' W 070°29'4 8.3
2018-Jun-17 08:59N 42°32' W 070°35'4 8.1
2018-Jun-17 08:30N 42°34' W 070°40'3 5.6
2018-Jun-17 08:00N 42°37' W 070°40'0 0.7
2018-Jun-17 07:30N 42°37' W 070°39'0 0.0
2018-Jun-17 07:00N 42°37' W 070°39'0 0.0
2018-Jun-17 06:30N 42°37' W 070°39'0 0.0
2018-Jun-17 06:00N 42°37' W 070°39'0 0.0
2018-Jun-17 05:30N 42°37' W 070°39'0 0.0
2018-Jun-17 05:00N 42°37' W 070°39'0 0.2
2018-Jun-17 04:30N 42°37' W 070°39'0 0.0
2018-Jun-17 04:00N 42°37' W 070°39'0 0.0
2018-Jun-17 03:30N 42°37' W 070°39'0 0.0
2018-Jun-17 03:00N 42°37' W 070°39'0 0.0
2018-Jun-17 02:30N 42°37' W 070°39'0 0.0
2018-Jun-17 02:00N 42°37' W 070°39'0 0.0
2018-Jun-17 01:30N 42°37' W 070°39'0 0.0
2018-Jun-17 01:00N 42°37' W 070°39'0 0.0
2018-Jun-17 00:30N 42°37' W 070°39'0 0.0
2018-Jun-17 00:00N 42°37' W 070°39'0 0.0
2018-Jun-16 23:30N 42°37' W 070°39'0 0.0
2018-Jun-16 23:00N 42°37' W 070°39'0 0.0
2018-Jun-16 22:30N 42°37' W 070°39'0 0.0
2018-Jun-16 22:00N 42°37' W 070°39'0 0.0
2018-Jun-16 21:30N 42°37' W 070°39'0 0.0
2018-Jun-16 21:00N 42°37' W 070°39'0 0.0
2018-Jun-16 20:30N 42°37' W 070°39'0 0.0
2018-Jun-16 20:00N 42°37' W 070°39'0 0.0
2018-Jun-16 19:30N 42°37' W 070°39'0 0.0
2018-Jun-16 19:00N 42°37' W 070°39'0 0.0
2018-Jun-16 18:30N 42°37' W 070°39'0 0.9
2018-Jun-16 18:00N 42°37' W 070°40'0 0.0
2018-Jun-16 17:30N 42°37' W 070°40'0 0.0
2018-Jun-16 17:00N 42°37' W 070°40'0 0.9
2018-Jun-16 16:30N 42°37' W 070°39'0 0.0
2018-Jun-16 16:00N 42°37' W 070°39'0 0.0
2018-Jun-16 15:30N 42°37' W 070°39'0 0.0
2018-Jun-16 15:00N 42°37' W 070°39'0 0.0
2018-Jun-16 14:30N 42°37' W 070°39'0 0.0
2018-Jun-16 14:00N 42°37' W 070°39'0 0.0
2018-Jun-16 13:30N 42°37' W 070°39'0 0.0
2018-Jun-16 13:00N 42°37' W 070°39'0 0.0
2018-Jun-16 12:30N 42°37' W 070°39'0 0.0
2018-Jun-16 12:00N 42°37' W 070°39'0 0.0
2018-Jun-16 11:30N 42°37' W 070°39'0 0.0
2018-Jun-16 11:00N 42°37' W 070°39'0 0.0
2018-Jun-16 10:30N 42°37' W 070°39'0 0.0
2018-Jun-16 10:00N 42°37' W 070°39'0 0.0
2018-Jun-16 09:30N 42°37' W 070°39'0 0.0
2018-Jun-16 09:00N 42°37' W 070°39'0 0.0
2018-Jun-16 08:30N 42°37' W 070°39'0 0.0
2018-Jun-16 08:00N 42°37' W 070°39'0 0.0
2018-Jun-16 07:30N 42°37' W 070°39'0 0.0
2018-Jun-16 07:00N 42°37' W 070°39'0 0.0
2018-Jun-16 06:30N 42°37' W 070°39'0 0.0
2018-Jun-16 05:59N 42°37' W 070°39'0 0.0
2018-Jun-16 05:30N 42°37' W 070°39'0 0.0
2018-Jun-16 05:00N 42°37' W 070°39'0 0.0
2018-Jun-16 04:30N 42°37' W 070°39'0 0.0
2018-Jun-16 04:00N 42°37' W 070°39'0 0.0
2018-Jun-16 03:30N 42°37' W 070°39'0 0.0
2018-Jun-16 03:00N 42°37' W 070°39'0 0.0
2018-Jun-16 02:30N 42°37' W 070°39'0 0.0
2018-Jun-16 02:00N 42°37' W 070°39'0 0.0
2018-Jun-16 01:30N 42°37' W 070°39'0 0.0
2018-Jun-16 01:00N 42°37' W 070°39'0 0.0
2018-Jun-16 00:30N 42°37' W 070°39'0 0.0
2018-Jun-15 23:59N 42°37' W 070°39'0 0.0
2018-Jun-15 23:30N 42°37' W 070°39'0 0.0
2018-Jun-15 23:00N 42°37' W 070°39'0 0.0
2018-Jun-15 22:30N 42°37' W 070°39'0 0.0
2018-Jun-15 22:00N 42°37' W 070°39'0 0.0
2018-Jun-15 21:30N 42°37' W 070°39'0 0.0
2018-Jun-15 21:00N 42°37' W 070°39'0 0.0
2018-Jun-15 20:30N 42°37' W 070°39'0 0.0
2018-Jun-15 20:00N 42°37' W 070°39'0 0.0
2018-Jun-15 19:30N 42°37' W 070°39'0 0.0
2018-Jun-15 19:00N 42°37' W 070°39'0 0.0
2018-Jun-15 18:30N 42°37' W 070°39'0 0.0
2018-Jun-15 18:00N 42°37' W 070°39'0 0.0
2018-Jun-15 17:30N 42°37' W 070°39'0 0.0
2018-Jun-15 17:00N 42°37' W 070°39'0 0.0
2018-Jun-15 16:30N 42°37' W 070°39'0 0.0
2018-Jun-15 16:00N 42°37' W 070°39'0 0.0
2018-Jun-15 15:30N 42°37' W 070°39'0 0.0
2018-Jun-15 15:01N 42°37' W 070°39'0 0.0
2018-Jun-15 14:30N 42°37' W 070°39'0 0.0
2018-Jun-15 14:01N 42°37' W 070°39'0 0.0
2018-Jun-15 13:30N 42°37' W 070°39'0 0.0
2018-Jun-15 13:00N 42°37' W 070°39'0 0.0
2018-Jun-15 12:30N 42°37' W 070°39'0 0.0
2018-Jun-15 12:00N 42°37' W 070°39'0 0.0
2018-Jun-15 11:30N 42°37' W 070°39'0 0.0
2018-Jun-15 11:00N 42°37' W 070°39'0 0.0
2018-Jun-15 10:30N 42°37' W 070°39'0 0.0
2018-Jun-15 10:00N 42°37' W 070°39'0 0.0
2018-Jun-15 09:30N 42°37' W 070°39'0 0.0
2018-Jun-15 09:00N 42°37' W 070°39'0 0.0
2018-Jun-15 08:30N 42°37' W 070°39'0 0.0
2018-Jun-15 08:00N 42°37' W 070°39'0 0.0
2018-Jun-15 07:31N 42°37' W 070°39'0 0.0
2018-Jun-15 07:00N 42°37' W 070°39'0 0.0
2018-Jun-15 06:30N 42°37' W 070°39'0 0.0
2018-Jun-15 06:00N 42°37' W 070°39'0 0.0
2018-Jun-15 05:30N 42°37' W 070°39'0 0.0
2018-Jun-15 05:00N 42°37' W 070°39'0 0.0
2018-Jun-15 04:31N 42°37' W 070°39'0 0.0
2018-Jun-15 04:00N 42°37' W 070°39'0 0.0
2018-Jun-15 03:30N 42°37' W 070°39'0 0.0
2018-Jun-15 03:00N 42°37' W 070°39'0 0.0
2018-Jun-15 02:30N 42°37' W 070°39'0 0.0
2018-Jun-15 02:00N 42°37' W 070°39'0 0.0
2018-Jun-15 01:30N 42°37' W 070°39'0 0.0
2018-Jun-15 01:00N 42°37' W 070°39'0 0.0
2018-Jun-15 00:30N 42°37' W 070°39'0 0.0
2018-Jun-15 00:00N 42°37' W 070°39'0 0.0
2018-Jun-14 23:30N 42°37' W 070°39'0 0.0
2018-Jun-14 23:00N 42°37' W 070°39'0 0.0
2018-Jun-14 22:30N 42°37' W 070°39'0 0.0
2018-Jun-14 22:00N 42°37' W 070°39'0 0.0
2018-Jun-14 21:30N 42°37' W 070°39'0 0.0
2018-Jun-14 21:00N 42°37' W 070°39'0 0.0
2018-Jun-14 20:30N 42°37' W 070°39'0 0.0
2018-Jun-14 20:00N 42°37' W 070°39'0 0.0
2018-Jun-14 19:30N 42°37' W 070°39'0 0.0
2018-Jun-14 19:00N 42°37' W 070°39'0 0.0
2018-Jun-14 18:30N 42°37' W 070°39'0 0.0
2018-Jun-14 18:00N 42°37' W 070°39'0 0.0
2018-Jun-14 17:30N 42°37' W 070°39'0 0.0
2018-Jun-14 17:00N 42°37' W 070°39'0 0.0
2018-Jun-14 16:30N 42°37' W 070°39'0 0.0
2018-Jun-14 16:00N 42°37' W 070°39'0 0.0
2018-Jun-14 15:30N 42°37' W 070°39'0 0.0
2018-Jun-14 15:00N 42°37' W 070°39'0 0.0
2018-Jun-14 14:30N 42°37' W 070°39'0 0.0
2018-Jun-14 14:00N 42°37' W 070°39'0 0.9
2018-Jun-14 13:29N 42°37' W 070°40'0 0.0
2018-Jun-14 12:58N 42°37' W 070°40'0 0.0
2018-Jun-14 12:30N 42°37' W 070°40'0 0.0
2018-Jun-14 12:00N 42°37' W 070°40'0 0.0
2018-Jun-14 11:30N 42°37' W 070°40'0 0.0
2018-Jun-14 11:00N 42°37' W 070°40'0 0.0
2018-Jun-14 10:30N 42°37' W 070°40'0 0.0
2018-Jun-14 10:00N 42°37' W 070°40'0 0.0
2018-Jun-14 09:30N 42°37' W 070°40'0 0.0
2018-Jun-14 09:00N 42°37' W 070°40'2 4.7
2018-Jun-14 08:30N 42°34' W 070°40'4 8.2
2018-Jun-14 08:00N 42°33' W 070°35'4 8.7
2018-Jun-14 07:30N 42°30' W 070°30'4 8.8
2018-Jun-14 07:00N 42°29' W 070°25'4 8.7
2018-Jun-14 06:29N 42°27' W 070°19'3 7.0
2018-Jun-14 06:00N 42°26' W 070°15'13 0.4
2018-Jun-13 00:34N 42°22' W 069°58'0 3.5
2018-Jun-13 00:28N 42°22' W 069°58'3 0.2
2018-Jun-12 08:18N 42°19' W 069°59'2 2.3
2018-Jun-12 07:39N 42°21' W 069°58'1 2.8
2018-Jun-12 07:17N 42°22' W 069°58'1 2.9
2018-Jun-12 06:49N 42°23' W 069°57'1 3.1
2018-Jun-12 06:22N 42°24' W 069°56'1 2.9
2018-Jun-12 06:00N 42°25' W 069°56'3 1.1
2018-Jun-12 03:44N 42°27' W 069°53'3 2.8
2018-Jun-12 02:46N 42°25' W 069°56'1 2.7
2018-Jun-12 02:30N 42°24' W 069°56'2 2.8
2018-Jun-12 01:49N 42°22' W 069°56'1 2.8
2018-Jun-12 01:30N 42°21' W 069°56'2 2.8
2018-Jun-12 00:52N 42°20' W 069°56'1 2.9
2018-Jun-12 00:30N 42°19' W 069°57'1 2.7
2018-Jun-11 23:59N 42°18' W 069°58'1 2.9
2018-Jun-11 23:30N 42°20' W 069°59'1 2.9
2018-Jun-11 23:00N 42°21' W 069°58'1 2.8
2018-Jun-11 22:30N 42°22' W 069°57'1 2.9
2018-Jun-11 21:59N 42°23' W 069°56'2 0.9
2018-Jun-11 19:19N 42°25' W 069°58'0 0.2
2018-Jun-11 18:57N 42°25' W 069°58'3 2.6
2018-Jun-11 17:47N 42°23' W 069°57'1 2.9
2018-Jun-11 17:30N 42°22' W 069°57'5 2.0
2018-Jun-11 15:04N 42°26' W 069°59'16 2.1
2018-Jun-11 07:23N 42°36' W 069°42'1 3.1
2018-Jun-11 07:00N 42°36' W 069°40'5 2.9
2018-Jun-11 05:13N 42°37' W 069°33'1 2.6
2018-Jun-11 04:59N 42°37' W 069°33'8 2.3
2018-Jun-11 01:41N 42°43' W 069°28'1 3.5
2018-Jun-11 01:30N 42°44' W 069°28'2 3.3
2018-Jun-11 00:47N 42°45' W 069°31'1 3.3
2018-Jun-11 00:30N 42°46' W 069°32'2 3.2
2018-Jun-11 00:00N 42°46' W 069°34'1 3.0
2018-Jun-10 23:30N 42°47' W 069°36'1 2.9
2018-Jun-10 23:00N 42°47' W 069°38'2 3.4
2018-Jun-10 22:30N 42°46' W 069°40'5 9.0
2018-Jun-10 22:00N 42°42' W 069°42'5 9.5
2018-Jun-10 21:30N 42°38' W 069°45'5 9.3
2018-Jun-10 21:00N 42°34' W 069°48'4 9.1
2018-Jun-10 20:30N 42°30' W 069°51'3 5.9
2018-Jun-10 20:00N 42°27' W 069°52'3 5.4
2018-Jun-10 19:30N 42°25' W 069°55'4 8.4
2018-Jun-10 19:00N 42°21' W 069°58'3 5.0
2018-Jun-10 18:30N 42°19' W 069°59'1 1.9
2018-Jun-10 18:00N 42°20' W 069°59'1 2.9
2018-Jun-10 17:30N 42°21' W 069°58'2 2.8
2018-Jun-10 16:40N 42°23' W 069°56'0 2.7
2018-Jun-10 16:30N 42°24' W 069°56'1 2.8
2018-Jun-10 16:00N 42°25' W 069°56'2 3.1
2018-Jun-10 15:17N 42°27' W 069°53'1 3.2
2018-Jun-10 14:59N 42°26' W 069°52'3 5.9
2018-Jun-10 14:30N 42°29' W 069°53'2 1.9
2018-Jun-10 13:12N 42°27' W 069°52'0 1.8
2018-Jun-10 12:58N 42°27' W 069°52'1 2.7
2018-Jun-10 12:30N 42°26' W 069°54'1 2.7
2018-Jun-10 12:00N 42°25' W 069°55'  

Dump ship's entire track history